Time;durP1;ratioP1;P1;durP2;ratioP2;P2;SDS_P1;SDS_P2;PMS_P1;PMS_P2;Temp;Humidity;BMP_temperature;BMP_pressure;BME280_temperature;BME280_humidity;BME280_pressure;Samples;Min_cycle;Max_cycle;Signal;HPM_P1;HPM_P2
2023/02/06 00:01:13;;;;;;;1.70;1.50;;;3.50;98.20;;;;;;5007084;28;20483;-77
2023/02/06 00:03:40;;;;;;;1.60;1.30;;;3.50;98.20;;;;;;5013069;28;20463;-75
2023/02/06 00:06:08;;;;;;;1.70;1.50;;;3.50;98.20;;;;;;5001890;28;20484;-75
2023/02/06 00:08:35;;;;;;;1.67;1.40;;;3.50;98.20;;;;;;5006983;28;20521;-75
2023/02/06 00:11:06;;;;;;;1.70;1.40;;;3.50;98.20;;;;;;5007116;28;20499;-75
2023/02/06 00:13:33;;;;;;;1.70;1.40;;;3.50;98.20;;;;;;5007289;28;20479;-75
2023/02/06 00:16:00;;;;;;;1.70;1.50;;;3.50;98.20;;;;;;5011692;28;20492;-75
2023/02/06 00:18:27;;;;;;;1.60;1.40;;;3.50;98.20;;;;;;5008423;28;20459;-75
2023/02/06 00:20:54;;;;;;;1.67;1.40;;;3.50;98.20;;;;;;5012064;28;20466;-75
2023/02/06 00:23:21;;;;;;;1.70;1.50;;;3.50;98.20;;;;;;5011526;28;20479;-75
2023/02/06 00:25:48;;;;;;;1.60;1.40;;;3.50;98.20;;;;;;5028662;28;20465;-75
2023/02/06 00:28:16;;;;;;;1.67;1.40;;;3.50;98.20;;;;;;5007058;28;20467;-75
2023/02/06 00:30:47;;;;;;;1.63;1.50;;;3.50;98.20;;;;;;5026093;28;20471;-74
2023/02/06 00:33:14;;;;;;;1.63;1.40;;;3.50;98.20;;;;;;4998498;28;20578;-74
2023/02/06 00:35:40;;;;;;;1.63;1.40;;;3.50;98.20;;;;;;5016507;28;20480;-75
2023/02/06 00:38:09;;;;;;;1.63;1.40;;;3.40;98.20;;;;;;4996707;28;20565;-74
2023/02/06 00:40:36;;;;;;;1.63;1.40;;;3.40;98.20;;;;;;5025574;28;20463;-75
2023/02/06 00:43:03;;;;;;;1.67;1.37;;;3.40;98.20;;;;;;4995204;28;21152;-74
2023/02/06 00:45:32;;;;;;;1.63;1.37;;;3.30;98.20;;;;;;5028968;28;20491;-74
2023/02/06 00:47:59;;;;;;;1.70;1.43;;;3.30;98.20;;;;;;5015806;28;20550;-74
2023/02/06 00:50:26;;;;;;;1.63;1.40;;;3.30;98.20;;;;;;5026126;28;20801;-74
2023/02/06 00:52:53;;;;;;;1.67;1.40;;;3.30;98.20;;;;;;4999267;28;20584;-74
2023/02/06 00:55:20;;;;;;;1.70;1.40;;;3.30;98.20;;;;;;5027577;28;20487;-75
2023/02/06 00:57:47;;;;;;;1.67;1.40;;;3.20;98.20;;;;;;4996977;28;20571;-74
2023/02/06 01:00:15;;;;;;;1.63;1.40;;;3.20;98.20;;;;;;5028183;28;20498;-74
2023/02/06 01:02:43;;;;;;;1.67;1.40;;;3.10;98.20;;;;;;4998394;28;20939;-72
2023/02/06 01:05:10;;;;;;;1.70;1.40;;;3.10;98.20;;;;;;5013021;28;20488;-71
2023/02/06 01:07:39;;;;;;;1.70;1.60;;;3.10;98.20;;;;;;5001507;28;21103;-74
2023/02/06 01:10:07;;;;;;;1.63;1.40;;;3.10;98.20;;;;;;5026045;28;20478;-73
2023/02/06 01:12:35;;;;;;;1.63;1.40;;;3.00;98.20;;;;;;5001455;28;20555;-72
2023/02/06 01:15:02;;;;;;;1.63;1.30;;;3.00;98.20;;;;;;5025175;28;20817;-72
2023/02/06 01:17:29;;;;;;;1.67;1.40;;;3.00;98.20;;;;;;5002050;28;20491;-73
2023/02/06 01:19:57;;;;;;;1.67;1.50;;;3.00;98.20;;;;;;5025854;28;20550;-73
2023/02/06 01:22:24;;;;;;;1.70;1.50;;;3.00;98.20;;;;;;5003042;28;20496;-72
2023/02/06 01:24:51;;;;;;;1.67;1.40;;;3.00;98.20;;;;;;5025091;28;20968;-73
2023/02/06 01:27:18;;;;;;;1.70;1.50;;;3.00;98.20;;;;;;5001485;28;21115;-73
2023/02/06 01:29:45;;;;;;;1.70;1.50;;;3.00;98.20;;;;;;5021547;28;20459;-73
2023/02/06 01:32:12;;;;;;;1.70;1.50;;;3.00;98.20;;;;;;5004238;28;20491;-73
2023/02/06 01:34:39;;;;;;;1.70;1.57;;;3.00;98.20;;;;;;5006234;28;20844;-73
2023/02/06 01:37:07;;;;;;;1.63;1.50;;;3.00;98.20;;;;;;4997349;28;20923;-73
2023/02/06 01:39:34;;;;;;;1.67;1.47;;;2.90;98.20;;;;;;5019127;28;20503;-73
2023/02/06 01:42:02;;;;;;;2.03;1.60;;;2.90;98.20;;;;;;5009243;28;20579;-72
2023/02/06 01:44:32;;;;;;;1.63;1.40;;;2.90;98.20;;;;;;5018340;28;20880;-73
2023/02/06 01:46:59;;;;;;;1.67;1.40;;;2.90;98.20;;;;;;5007956;28;20475;-72
2023/02/06 01:49:30;;;;;;;1.70;1.50;;;2.90;98.20;;;;;;5021673;28;20467;-72
2023/02/06 01:52:02;;;;;;;1.70;1.50;;;2.90;98.20;;;;;;5007389;28;20480;-72
2023/02/06 01:54:31;;;;;;;1.60;1.40;;;2.80;98.20;;;;;;5025215;28;20500;-76
2023/02/06 01:57:04;;;;;;;1.70;1.50;;;2.80;98.20;;;;;;5004624;28;20940;-74
2023/02/06 01:59:31;;;;;;;1.70;1.50;;;2.80;98.20;;;;;;5028710;28;20463;-75
2023/02/06 02:01:59;;;;;;;1.70;1.50;;;2.80;98.20;;;;;;5006922;28;20558;-75
2023/02/06 02:04:28;;;;;;;1.63;1.40;;;2.80;98.20;;;;;;5011789;28;20496;-75
2023/02/06 02:07:06;;;;;;;1.70;1.60;;;2.80;98.20;;;;;;5000856;28;20500;-77
2023/02/06 02:09:35;;;;;;;1.70;1.40;;;2.80;98.20;;;;;;5021639;28;20562;-75
2023/02/06 02:12:02;;;;;;;1.70;1.57;;;2.70;98.20;;;;;;5009606;28;20488;-76
2023/02/06 02:14:29;;;;;;;1.70;1.50;;;2.70;98.20;;;;;;5027414;28;20490;-75
2023/02/06 02:17:11;;;;;;;1.60;1.40;;;2.70;98.20;;;;;;5014396;28;20509;-74
2023/02/06 02:20:28;;;;;;;1.70;1.40;;;2.60;98.20;;;;;;5020147;28;20495;-75
2023/02/06 02:23:10;;;;;;;1.70;1.60;;;2.60;98.20;;;;;;4928119;28;20582;-76
2023/02/06 02:26:20;;;;;;;1.70;1.57;;;2.50;98.20;;;;;;5023570;28;20460;-77
2023/02/06 02:29:24;;;;;;;1.73;1.63;;;2.50;98.20;;;;;;4978690;28;20502;-75
2023/02/06 02:32:42;;;;;;;1.70;1.50;;;2.50;98.20;;;;;;5009017;28;20533;-76
2023/02/06 02:35:22;;;;;;;1.70;1.50;;;2.40;98.20;;;;;;5020489;28;20839;-74
2023/02/06 02:37:59;;;;;;;1.70;1.50;;;2.40;98.20;;;;;;5012149;28;20486;-73
2023/02/06 02:40:37;;;;;;;1.70;1.50;;;2.40;98.20;;;;;;5017115;28;20971;-73
2023/02/06 02:43:13;;;;;;;1.70;1.50;;;2.30;98.20;;;;;;5012380;28;20927;-73
2023/02/06 02:45:44;;;;;;;1.70;1.40;;;2.30;98.20;;;;;;5010088;28;20839;-73
2023/02/06 02:48:14;;;;;;;1.67;1.50;;;2.30;98.20;;;;;;5012884;28;20477;-73
2023/02/06 02:50:43;;;;;;;1.70;1.50;;;2.30;98.20;;;;;;5019810;28;20459;-73
2023/02/06 02:53:12;;;;;;;1.70;1.50;;;2.20;98.20;;;;;;5014508;28;20518;-73
2023/02/06 02:55:38;;;;;;;1.67;1.50;;;2.20;98.20;;;;;;5020251;28;20577;-73
2023/02/06 02:58:09;;;;;;;1.70;1.60;;;2.20;98.20;;;;;;5012281;28;20479;-73
2023/02/06 03:00:42;;;;;;;1.77;1.67;;;2.20;98.20;;;;;;5020324;28;20487;-73
2023/02/06 03:03:11;;;;;;;1.70;1.50;;;2.10;98.20;;;;;;4997241;28;20491;-73
2023/02/06 03:05:49;;;;;;;1.70;1.40;;;2.10;98.20;;;;;;5017642;28;20463;-74
2023/02/06 03:08:23;;;;;;;1.70;1.50;;;2.00;98.20;;;;;;4992828;28;20611;-74
2023/02/06 03:10:59;;;;;;;1.70;1.50;;;2.00;98.20;;;;;;5005929;28;20473;-74
2023/02/06 03:13:31;;;;;;;1.70;1.50;;;1.90;98.20;;;;;;5021268;28;20987;-73
2023/02/06 03:16:07;;;;;;;1.63;1.40;;;1.90;98.20;;;;;;5007330;28;20480;-73
2023/02/06 03:18:39;;;;;;;1.70;1.50;;;1.90;98.20;;;;;;5026054;28;20462;-73
2023/02/06 03:21:12;;;;;;;1.70;1.50;;;1.90;98.20;;;;;;5012931;28;20509;-73
2023/02/06 03:23:42;;;;;;;1.67;1.50;;;1.90;98.20;;;;;;5026085;28;20554;-73
2023/02/06 03:26:14;;;;;;;1.70;1.50;;;1.90;98.20;;;;;;5002992;28;20464;-74
2023/02/06 03:28:49;;;;;;;1.67;1.40;;;1.90;98.20;;;;;;5023988;28;20471;-73
2023/02/06 03:31:20;;;;;;;1.70;1.50;;;1.90;98.20;;;;;;5008369;28;20509;-73
2023/02/06 03:33:51;;;;;;;1.70;1.60;;;1.90;98.20;;;;;;5025676;28;20459;-73
2023/02/06 03:36:19;;;;;;;1.70;1.60;;;1.90;98.20;;;;;;5001134;28;20578;-73
2023/02/06 03:38:49;;;;;;;1.70;1.50;;;1.90;98.20;;;;;;5019429;28;20691;-73
2023/02/06 03:41:21;;;;;;;1.70;1.50;;;1.90;98.20;;;;;;5012088;28;20538;-73
2023/02/06 03:43:49;;;;;;;1.77;1.67;;;1.80;98.20;;;;;;5021889;28;20464;-73
2023/02/06 03:46:18;;;;;;;1.67;1.50;;;1.80;98.20;;;;;;5011819;28;20496;-73
2023/02/06 03:48:50;;;;;;;1.70;1.60;;;1.70;98.20;;;;;;5012308;28;20467;-73
2023/02/06 03:51:24;;;;;;;1.80;1.70;;;1.70;98.20;;;;;;5012080;28;20931;-73
2023/02/06 03:53:55;;;;;;;1.70;1.50;;;1.70;98.20;;;;;;5014152;28;20982;-73
2023/02/06 03:56:28;;;;;;;1.70;1.50;;;1.60;98.20;;;;;;5009465;28;20545;-73
2023/02/06 03:58:55;;;;;;;1.70;1.50;;;1.60;98.20;;;;;;5013698;28;20866;-73
2023/02/06 04:01:23;;;;;;;1.70;1.57;;;1.60;98.20;;;;;;5019002;28;20487;-73
2023/02/06 04:03:51;;;;;;;1.70;1.50;;;1.50;98.20;;;;;;5018944;28;20545;-73
2023/02/06 04:06:19;;;;;;;1.70;1.60;;;1.50;98.20;;;;;;5010826;28;20475;-73
2023/02/06 04:08:47;;;;;;;1.70;1.50;;;1.50;98.20;;;;;;5025941;28;20472;-73
2023/02/06 04:11:14;;;;;;;1.70;1.50;;;1.50;98.20;;;;;;5007392;28;21007;-72
2023/02/06 04:13:41;;;;;;;1.70;1.60;;;1.40;98.20;;;;;;5036282;28;20466;-73
2023/02/06 04:16:08;;;;;;;1.70;1.50;;;1.40;98.20;;;;;;5017008;28;20654;-73
2023/02/06 04:18:35;;;;;;;1.70;1.50;;;1.30;98.20;;;;;;5015701;28;20463;-72
2023/02/06 04:21:05;;;;;;;1.70;1.57;;;1.30;98.20;;;;;;5016570;28;20563;-73
2023/02/06 04:23:34;;;;;;;1.70;1.50;;;1.30;98.20;;;;;;5015275;28;20613;-73
2023/02/06 04:26:01;;;;;;;1.70;1.60;;;1.30;98.20;;;;;;5015929;28;20470;-73
2023/02/06 04:28:28;;;;;;;2.00;1.80;;;1.30;98.20;;;;;;5014191;28;20463;-73
2023/02/06 04:30:55;;;;;;;1.70;1.60;;;1.30;98.20;;;;;;5016505;28;20467;-72
2023/02/06 04:33:22;;;;;;;1.70;1.50;;;1.30;98.20;;;;;;5013372;28;20483;-73
2023/02/06 04:35:49;;;;;;;1.70;1.60;;;1.20;98.20;;;;;;5017063;28;20840;-72
2023/02/06 04:38:16;;;;;;;1.70;1.60;;;1.20;98.20;;;;;;5025887;28;20711;-73
2023/02/06 04:40:45;;;;;;;1.70;1.60;;;1.20;98.20;;;;;;5029135;28;20858;-72
2023/02/06 04:43:12;;;;;;;1.70;1.60;;;1.20;98.20;;;;;;4999473;28;20561;-72
2023/02/06 04:45:40;;;;;;;1.70;1.50;;;1.10;98.20;;;;;;5026723;28;20463;-73
2023/02/06 04:48:07;;;;;;;1.73;1.63;;;1.10;98.20;;;;;;5022439;28;20486;-72
2023/02/06 04:50:34;;;;;;;1.70;1.60;;;1.10;98.20;;;;;;5028806;28;20549;-73
2023/02/06 04:53:01;;;;;;;1.70;1.60;;;1.10;98.20;;;;;;5016058;28;21026;-73
2023/02/06 04:55:28;;;;;;;1.70;1.50;;;1.00;98.20;;;;;;5029916;28;20470;-72
2023/02/06 04:57:56;;;;;;;1.70;1.60;;;1.00;98.20;;;;;;5023744;28;20474;-72
2023/02/06 05:00:23;;;;;;;1.70;1.60;;;1.00;98.20;;;;;;5028961;28;20934;-73
2023/02/06 05:02:50;;;;;;;1.70;1.50;;;1.00;98.20;;;;;;4997926;28;20567;-72
2023/02/06 05:05:18;;;;;;;1.70;1.60;;;1.00;98.20;;;;;;5024031;28;20473;-72
2023/02/06 05:07:45;;;;;;;1.73;1.63;;;0.90;98.20;;;;;;5017454;28;20766;-72
2023/02/06 05:10:11;;;;;;;1.70;1.60;;;0.90;98.20;;;;;;5028982;28;20466;-72
2023/02/06 05:12:38;;;;;;;1.70;1.60;;;0.90;98.20;;;;;;4999705;28;20484;-72
2023/02/06 05:15:08;;;;;;;1.70;1.60;;;0.90;98.20;;;;;;5022061;28;20648;-72
2023/02/06 05:17:36;;;;;;;1.80;1.70;;;0.90;98.20;;;;;;4996522;28;20571;-72
2023/02/06 05:20:03;;;;;;;1.70;1.60;;;0.90;98.20;;;;;;5026969;28;20463;-72
2023/02/06 05:22:30;;;;;;;1.70;1.60;;;0.90;98.20;;;;;;5016751;28;20522;-72
2023/02/06 05:24:57;;;;;;;1.70;1.60;;;0.90;98.20;;;;;;5025274;28;20514;-72
2023/02/06 05:27:24;;;;;;;1.73;1.63;;;0.90;98.20;;;;;;5016692;28;20483;-72
2023/02/06 05:29:51;;;;;;;1.70;1.50;;;0.90;98.20;;;;;;5029382;28;20467;-72
2023/02/06 05:32:20;;;;;;;1.80;1.70;;;0.90;98.20;;;;;;5007325;28;20493;-72
2023/02/06 05:34:47;;;;;;;1.70;1.60;;;0.90;98.20;;;;;;5021671;28;20486;-72
2023/02/06 05:37:14;;;;;;;1.70;1.60;;;0.90;98.20;;;;;;5014507;28;20589;-72
2023/02/06 05:39:41;;;;;;;1.70;1.60;;;1.00;98.20;;;;;;5026959;28;20464;-72
2023/02/06 05:42:08;;;;;;;1.70;1.60;;;1.00;98.20;;;;;;5021190;28;20484;-72
2023/02/06 05:44:35;;;;;;;1.70;1.60;;;1.00;98.20;;;;;;5030715;28;20895;-73
2023/02/06 05:47:02;;;;;;;1.70;1.60;;;1.10;98.20;;;;;;5003134;28;20480;-72
2023/02/06 05:49:32;;;;;;;1.70;1.60;;;1.10;98.20;;;;;;5020118;28;20463;-73
2023/02/06 05:51:59;;;;;;;1.70;1.50;;;1.20;98.20;;;;;;5012951;28;20514;-73
2023/02/06 05:54:26;;;;;;;1.70;1.50;;;1.30;98.20;;;;;;5031785;28;20470;-73
2023/02/06 05:56:55;;;;;;;1.70;1.60;;;1.30;98.20;;;;;;5005860;28;20492;-72
2023/02/06 05:59:23;;;;;;;1.70;1.50;;;1.30;98.20;;;;;;5019357;28;20558;-73
2023/02/06 06:01:50;;;;;;;1.70;1.60;;;1.40;98.20;;;;;;5014194;28;20522;-73
2023/02/06 06:04:17;;;;;;;1.70;1.50;;;1.40;98.20;;;;;;5031937;28;20548;-73
2023/02/06 06:06:45;;;;;;;1.70;1.60;;;1.40;98.20;;;;;;5017327;28;20565;-73
2023/02/06 06:09:12;;;;;;;1.70;1.60;;;1.50;98.20;;;;;;5025976;28;20499;-73
2023/02/06 06:11:40;;;;;;;1.70;1.50;;;1.50;98.20;;;;;;5021677;28;20494;-74
2023/02/06 06:14:08;;;;;;;1.70;1.50;;;1.50;98.20;;;;;;5028768;28;20900;-72
2023/02/06 06:16:35;;;;;;;1.70;1.60;;;1.60;98.20;;;;;;5014093;28;20498;-74
2023/02/06 06:19:02;;;;;;;1.70;1.53;;;1.60;98.20;;;;;;5013748;28;20548;-74
2023/02/06 06:21:29;;;;;;;1.70;1.60;;;1.70;98.20;;;;;;5009827;28;20490;-75
2023/02/06 06:23:58;;;;;;;1.70;1.50;;;1.70;98.20;;;;;;5014613;28;20469;-73
2023/02/06 06:26:25;;;;;;;1.70;1.50;;;1.70;98.20;;;;;;5010317;28;20921;-73
2023/02/06 06:28:52;;;;;;;1.63;1.50;;;1.70;98.20;;;;;;5012865;28;20959;-73
2023/02/06 06:31:19;;;;;;;1.67;1.50;;;1.80;98.20;;;;;;5011215;28;20484;-73
2023/02/06 06:33:46;;;;;;;1.70;1.50;;;1.80;98.20;;;;;;5010966;28;20474;-74
2023/02/06 06:36:14;;;;;;;1.70;1.60;;;1.80;98.20;;;;;;5006215;28;20475;-72
2023/02/06 06:38:41;;;;;;;1.67;1.50;;;1.80;98.20;;;;;;5014348;28;20487;-72
2023/02/06 06:41:09;;;;;;;1.67;1.50;;;1.90;98.20;;;;;;5011778;28;20476;-72
2023/02/06 06:43:36;;;;;;;1.70;1.50;;;1.90;98.20;;;;;;5031176;28;21048;-72
2023/02/06 06:46:05;;;;;;;1.70;1.40;;;1.90;98.20;;;;;;5013662;28;20463;-73
2023/02/06 06:48:33;;;;;;;1.70;1.50;;;2.00;98.20;;;;;;5007533;28;20862;-72
2023/02/06 06:51:00;;;;;;;1.70;1.50;;;2.00;98.20;;;;;;5012653;28;20968;-72
2023/02/06 06:53:27;;;;;;;1.77;1.67;;;2.00;98.20;;;;;;5002758;28;20479;-72
2023/02/06 06:55:54;;;;;;;1.70;1.50;;;2.00;98.20;;;;;;5007777;28;20983;-73
2023/02/06 06:58:22;;;;;;;1.70;1.40;;;2.10;98.20;;;;;;5001693;28;20491;-73
2023/02/06 07:00:52;;;;;;;1.70;1.60;;;2.10;98.20;;;;;;5005209;28;21082;-73
2023/02/06 07:03:19;;;;;;;1.70;1.50;;;2.10;98.20;;;;;;5003825;28;20560;-74
2023/02/06 07:05:46;;;;;;;1.70;1.60;;;2.20;98.20;;;;;;5007267;28;20459;-74
2023/02/06 07:08:14;;;;;;;1.60;1.40;;;2.20;98.20;;;;;;5017970;28;20472;-75
2023/02/06 07:10:41;;;;;;;1.70;1.50;;;2.20;98.20;;;;;;5018246;28;20531;-75
2023/02/06 07:13:08;;;;;;;1.70;1.50;;;2.20;98.20;;;;;;4990406;28;20487;-75
2023/02/06 07:15:37;;;;;;;1.63;1.40;;;2.20;98.20;;;;;;5018372;28;20517;-75
2023/02/06 07:18:04;;;;;;;1.70;1.50;;;2.20;98.20;;;;;;4989385;28;20483;-75
2023/02/06 07:20:31;;;;;;;1.70;1.50;;;2.20;98.20;;;;;;5017774;28;20467;-75
2023/02/06 07:23:00;;;;;;;1.67;1.50;;;2.30;98.20;;;;;;4983876;28;20504;-74
2023/02/06 07:25:37;;;;;;;1.70;1.60;;;2.30;98.20;;;;;;5013652;28;20551;-74
2023/02/06 07:28:04;;;;;;;1.67;1.40;;;2.30;98.20;;;;;;4999203;28;21584;-74
2023/02/06 07:30:31;;;;;;;1.63;1.50;;;2.40;98.20;;;;;;5020738;28;20530;-75
2023/02/06 07:33:01;;;;;;;1.70;1.50;;;2.40;98.20;;;;;;4984188;28;20924;-74
2023/02/06 07:35:29;;;;;;;1.70;1.50;;;2.40;98.20;;;;;;5018305;28;20969;-73
2023/02/06 07:37:56;;;;;;;1.80;1.70;;;2.50;98.20;;;;;;5011471;28;20482;-73
2023/02/06 07:40:25;;;;;;;1.63;1.40;;;2.60;98.20;;;;;;5020528;28;20467;-74
2023/02/06 07:42:52;;;;;;;1.70;1.40;;;2.60;98.20;;;;;;5000455;28;20501;-73
2023/02/06 07:45:19;;;;;;;1.70;1.50;;;2.60;98.20;;;;;;5020504;28;20456;-73
2023/02/06 07:47:46;;;;;;;1.70;1.57;;;2.70;98.20;;;;;;4991935;28;20520;-74
2023/02/06 07:50:14;;;;;;;1.70;1.40;;;2.70;98.20;;;;;;5013422;28;20476;-73
2023/02/06 07:52:41;;;;;;;1.63;1.40;;;2.80;98.20;;;;;;4993200;28;20517;-73
2023/02/06 07:55:09;;;;;;;1.70;1.43;;;2.80;98.20;;;;;;5010473;28;20517;-74
2023/02/06 07:57:36;;;;;;;1.70;1.40;;;2.90;98.20;;;;;;4989403;28;21064;-73
2023/02/06 08:00:05;;;;;;;1.63;1.40;;;2.90;98.20;;;;;;5011842;28;20629;-75
2023/02/06 08:02:32;;;;;;;1.67;1.43;;;2.90;98.20;;;;;;4995534;28;21029;-74
2023/02/06 08:04:59;;;;;;;1.70;1.60;;;3.00;98.20;;;;;;5021315;28;20467;-74
2023/02/06 08:07:28;;;;;;;1.70;1.40;;;3.00;98.20;;;;;;5019271;28;20513;-74
2023/02/06 08:09:55;;;;;;;1.63;1.40;;;3.00;98.20;;;;;;5012116;28;20563;-74
2023/02/06 08:12:22;;;;;;;1.70;1.40;;;3.10;98.20;;;;;;4990474;28;20502;-74
2023/02/06 08:14:49;;;;;;;1.70;1.50;;;3.10;98.20;;;;;;5023903;28;20466;-73
2023/02/06 08:17:18;;;;;;;1.60;1.30;;;3.10;98.20;;;;;;4986398;28;21005;-73
2023/02/06 08:19:45;;;;;;;1.63;1.40;;;3.10;98.20;;;;;;5014478;28;20673;-75
2023/02/06 08:22:12;;;;;;;1.63;1.40;;;3.10;98.20;;;;;;5007339;28;20630;-73
2023/02/06 08:24:41;;;;;;;1.67;1.40;;;3.20;98.20;;;;;;5015944;28;20463;-74
2023/02/06 08:27:08;;;;;;;1.63;1.40;;;3.20;98.20;;;;;;4988987;28;20892;-74
2023/02/06 08:29:41;;;;;;;1.70;1.40;;;3.20;98.20;;;;;;5018502;28;20463;-74
2023/02/06 08:32:08;;;;;;;1.70;1.40;;;3.20;98.20;;;;;;4998300;28;20846;-74
2023/02/06 08:34:36;;;;;;;1.70;1.43;;;3.30;98.20;;;;;;5020516;28;20455;-74
2023/02/06 08:37:04;;;;;;;1.63;1.40;;;3.30;98.20;;;;;;4999972;28;20476;-74
2023/02/06 08:39:31;;;;;;;1.63;1.40;;;3.30;98.20;;;;;;5018761;28;20858;-74
2023/02/06 08:42:00;;;;;;;1.63;1.40;;;3.30;98.20;;;;;;4996148;28;20599;-74
2023/02/06 08:44:27;;;;;;;1.63;1.33;;;3.40;98.20;;;;;;5017255;28;20459;-74
2023/02/06 08:46:54;;;;;;;1.67;1.37;;;3.40;98.20;;;;;;5016847;28;20709;-74
2023/02/06 08:49:25;;;;;;;1.70;1.47;;;3.40;98.20;;;;;;5028578;28;20481;-74
2023/02/06 08:51:53;;;;;;;1.60;1.37;;;3.50;98.20;;;;;;5009449;28;20487;-74
2023/02/06 08:54:23;;;;;;;1.70;1.50;;;3.50;98.20;;;;;;5027734;28;20467;-74
2023/02/06 08:56:51;;;;;;;1.63;1.30;;;3.50;98.20;;;;;;4994933;28;20551;-72
2023/02/06 08:59:20;;;;;;;1.67;1.40;;;3.50;98.20;;;;;;5009802;28;20566;-73
2023/02/06 09:01:48;;;;;;;1.70;1.50;;;3.60;98.20;;;;;;5003546;28;20492;-73
2023/02/06 09:04:16;;;;;;;1.70;1.40;;;3.60;98.20;;;;;;5017566;28;20879;-73
2023/02/06 09:06:47;;;;;;;1.70;1.50;;;3.60;98.20;;;;;;5005809;28;20494;-74
2023/02/06 09:09:15;;;;;;;1.60;1.33;;;3.60;98.20;;;;;;5025572;28;20522;-73
2023/02/06 09:11:43;;;;;;;2.00;1.80;;;3.60;98.20;;;;;;4994806;28;20493;-73
2023/02/06 09:14:14;;;;;;;1.70;1.40;;;3.60;98.20;;;;;;5006108;28;20455;-74
2023/02/06 09:16:43;;;;;;;1.80;1.70;;;3.70;98.20;;;;;;4997961;28;20970;-73
2023/02/06 09:19:11;;;;;;;1.60;1.30;;;3.70;98.20;;;;;;5004412;28;20564;-73
2023/02/06 09:21:38;;;;;;;1.60;1.30;;;3.70;98.20;;;;;;4995916;28;20580;-73
2023/02/06 09:24:08;;;;;;;1.70;1.43;;;3.70;98.20;;;;;;5011491;28;20463;-74
2023/02/06 09:26:37;;;;;;;1.60;1.40;;;3.70;98.20;;;;;;5001234;28;20468;-73
2023/02/06 09:29:06;;;;;;;1.60;1.30;;;3.70;98.20;;;;;;5011789;28;20491;-73
2023/02/06 09:31:35;;;;;;;1.70;1.50;;;3.70;98.20;;;;;;5000844;28;21081;-73
2023/02/06 09:34:04;;;;;;;1.67;1.30;;;3.80;98.20;;;;;;5009511;28;20498;-73
2023/02/06 09:36:33;;;;;;;1.63;1.30;;;3.80;98.20;;;;;;5010508;28;20487;-75
2023/02/06 09:39:01;;;;;;;1.63;1.30;;;3.80;98.20;;;;;;5022338;28;20488;-74
2023/02/06 09:41:31;;;;;;;1.70;1.40;;;3.80;98.20;;;;;;5002523;28;21021;-74
2023/02/06 09:44:03;;;;;;;1.70;1.40;;;3.80;98.20;;;;;;5004649;28;20472;-74
2023/02/06 09:46:33;;;;;;;1.67;1.40;;;3.90;98.20;;;;;;4996147;28;20511;-74
2023/02/06 09:49:07;;;;;;;1.70;1.57;;;3.90;98.20;;;;;;5004829;28;20467;-75
2023/02/06 09:51:42;;;;;;;1.63;1.30;;;4.00;98.20;;;;;;4998416;28;20495;-76
2023/02/06 09:54:20;;;;;;;1.70;1.40;;;4.00;98.20;;;;;;5013364;28;20467;-76
2023/02/06 09:56:55;;;;;;;1.63;1.40;;;4.10;98.20;;;;;;5001130;28;20481;-77
2023/02/06 09:59:28;;;;;;;1.63;1.30;;;4.10;98.20;;;;;;5023891;28;20490;-75
2023/02/06 10:02:05;;;;;;;1.63;1.30;;;4.20;98.20;;;;;;4997266;28;21059;-75
2023/02/06 10:04:44;;;;;;;1.67;1.40;;;4.30;98.20;;;;;;5012968;28;20463;-75
2023/02/06 10:07:28;;;;;;;1.63;1.30;;;4.30;98.20;;;;;;5004163;28;20943;-73
2023/02/06 10:10:00;;;;;;;1.67;1.30;;;4.30;98.20;;;;;;5018905;28;20522;-73
2023/02/06 10:12:33;;;;;;;1.60;1.30;;;4.40;98.20;;;;;;4987869;28;20548;-74
2023/02/06 10:15:06;;;;;;;1.70;1.30;;;4.40;98.20;;;;;;5013582;28;20456;-74
2023/02/06 10:17:37;;;;;;;1.70;1.30;;;4.40;98.20;;;;;;4989000;28;20489;-73
2023/02/06 10:20:11;;;;;;;1.70;1.40;;;4.40;98.20;;;;;;5020848;28;20909;-74
2023/02/06 10:22:43;;;;;;;1.70;1.40;;;4.40;98.20;;;;;;4990127;28;20542;-72
2023/02/06 10:25:22;;;;;;;1.67;1.30;;;4.40;98.20;;;;;;5023135;28;20463;-72
2023/02/06 10:27:54;;;;;;;1.63;1.30;;;4.50;98.20;;;;;;4993877;28;20951;-72
2023/02/06 10:30:30;;;;;;;1.63;1.30;;;4.50;98.20;;;;;;5022695;28;20460;-73
2023/02/06 10:33:05;;;;;;;1.60;1.30;;;4.60;98.20;;;;;;4988337;28;20540;-73
2023/02/06 10:35:44;;;;;;;1.67;1.27;;;4.70;98.20;;;;;;5018877;28;20467;-72
2023/02/06 10:38:32;;;;;;;1.70;1.30;;;4.90;98.20;;;;;;4987238;28;20646;-72
2023/02/06 10:41:07;;;;;;;1.70;1.40;;;5.10;98.20;;;;;;5003691;28;20872;-73
2023/02/06 10:43:41;;;;;;;1.67;1.27;;;5.30;98.20;;;;;;4998589;28;20905;-73
2023/02/06 10:46:31;;;;;;;1.70;1.30;;;5.50;98.20;;;;;;5000770;28;20490;-72
2023/02/06 10:49:04;;;;;;;1.70;1.50;;;5.60;98.20;;;;;;5009135;28;20488;-73
2023/02/06 10:51:35;;;;;;;1.70;1.30;;;5.70;98.20;;;;;;5000153;28;21022;-72
2023/02/06 10:54:04;;;;;;;1.67;1.30;;;5.80;98.20;;;;;;5003901;28;20887;-72
2023/02/06 10:56:39;;;;;;;1.70;1.30;;;5.80;98.20;;;;;;5004363;28;20536;-72
2023/02/06 10:59:11;;;;;;;1.60;1.20;;;5.80;98.20;;;;;;5004846;28;20483;-72
2023/02/06 11:01:40;;;;;;;1.60;1.30;;;5.90;98.20;;;;;;5004183;28;20503;-73
2023/02/06 11:04:15;;;;;;;1.70;1.30;;;5.90;98.20;;;;;;5008655;28;20840;-74
2023/02/06 11:06:45;;;;;;;1.67;1.30;;;6.00;98.20;;;;;;5009230;28;20483;-74
2023/02/06 11:09:13;;;;;;;1.70;1.30;;;5.90;98.20;;;;;;5015117;28;20517;-71
2023/02/06 11:11:42;;;;;;;1.67;1.30;;;5.90;98.20;;;;;;5005630;28;20480;-74
2023/02/06 11:14:16;;;;;;;1.70;1.30;;;5.90;98.20;;;;;;5011434;28;20561;-76
2023/02/06 11:16:46;;;;;;;1.70;1.40;;;5.90;98.20;;;;;;4994923;28;21077;-74
2023/02/06 11:19:18;;;;;;;1.70;1.30;;;5.80;98.20;;;;;;5005318;28;20722;-72
2023/02/06 11:21:51;;;;;;;1.70;1.30;;;5.80;98.20;;;;;;4998918;28;20536;-72
2023/02/06 11:24:21;;;;;;;1.60;1.20;;;5.70;98.20;;;;;;5007794;28;20470;-72
2023/02/06 11:26:51;;;;;;;1.60;1.20;;;5.60;98.20;;;;;;5006041;28;20489;-72
2023/02/06 11:29:22;;;;;;;1.60;1.20;;;5.50;98.20;;;;;;5020611;28;20462;-74
2023/02/06 11:31:55;;;;;;;1.67;1.20;;;5.50;98.20;;;;;;4994939;28;20492;-72
2023/02/06 11:34:27;;;;;;;1.63;1.30;;;5.60;98.20;;;;;;5013704;28;20538;-72
2023/02/06 11:36:58;;;;;;;1.60;1.20;;;5.60;98.20;;;;;;5005764;28;20493;-72
2023/02/06 11:39:30;;;;;;;1.70;1.30;;;5.50;98.20;;;;;;5017468;28;21016;-72
2023/02/06 11:41:59;;;;;;;1.70;1.30;;;5.60;98.20;;;;;;5004036;28;20491;-72
2023/02/06 11:44:27;;;;;;;1.70;1.47;;;5.50;98.20;;;;;;5004659;28;20550;-72
2023/02/06 11:46:55;;;;;;;1.60;1.20;;;5.50;98.20;;;;;;4997801;28;20531;-72
2023/02/06 11:49:27;;;;;;;1.70;1.30;;;5.50;98.20;;;;;;5008345;28;20459;-71
2023/02/06 11:51:58;;;;;;;1.70;1.40;;;5.50;98.20;;;;;;5000285;28;20580;-72
2023/02/06 11:54:28;;;;;;;1.60;1.20;;;5.50;98.20;;;;;;5004564;28;20559;-72
2023/02/06 11:57:02;;;;;;;1.60;1.30;;;5.50;98.20;;;;;;4997402;28;20506;-72
2023/02/06 11:59:33;;;;;;;1.67;1.20;;;5.50;98.20;;;;;;5011187;28;20488;-71
2023/02/06 12:02:04;;;;;;;1.70;1.40;;;5.60;98.20;;;;;;4998154;28;20485;-72
2023/02/06 12:04:34;;;;;;;1.63;1.30;;;5.60;98.20;;;;;;5008794;28;20542;-72
2023/02/06 12:07:44;;;;;;;1.70;1.30;;;5.70;98.20;;;;;;5000418;28;20584;-72
2023/02/06 12:10:17;;;;;;;1.60;1.20;;;5.80;98.20;;;;;;5018213;28;20485;-72
2023/02/06 12:12:48;;;;;;;1.70;1.30;;;5.80;98.20;;;;;;4983827;28;20520;-71
2023/02/06 12:15:19;;;;;;;1.67;1.23;;;6.10;98.20;;;;;;5012890;28;20462;-72
2023/02/06 12:17:54;;;;;;;1.60;1.20;;;6.30;98.20;;;;;;5010968;28;20498;-72
2023/02/06 12:20:24;;;;;;;1.63;1.30;;;6.50;98.20;;;;;;5024831;28;20611;-72
2023/02/06 12:22:55;;;;;;;1.63;1.20;;;6.60;98.20;;;;;;4990190;28;20503;-72
2023/02/06 12:25:33;;;;;;;4.33;3.93;;;6.70;98.20;;;;;;5024800;28;20912;-72
2023/02/06 12:28:09;;;;;;;1.60;1.20;;;6.80;98.20;;;;;;4989268;28;20985;-72
2023/02/06 12:30:43;;;;;;;1.63;1.30;;;6.90;98.20;;;;;;5021567;28;20518;-72
2023/02/06 12:33:14;;;;;;;1.70;1.60;;;7.10;98.20;;;;;;5018386;28;20491;-72
2023/02/06 12:35:45;;;;;;;1.70;1.27;;;7.20;98.20;;;;;;5027292;28;20463;-72
2023/02/06 12:38:23;;;;;;;1.63;1.20;;;7.20;98.20;;;;;;4986906;28;20986;-72
2023/02/06 12:41:02;;;;;;;1.67;1.30;;;7.20;98.20;;;;;;5011828;28;20621;-71
2023/02/06 12:43:32;;;;;;;1.70;1.40;;;7.20;98.20;;;;;;5003379;28;20483;-71
2023/02/06 12:46:07;;;;;;;1.60;1.17;;;7.20;98.20;;;;;;5007435;28;20972;-71
2023/02/06 12:48:39;;;;;;;1.60;1.20;;;7.10;98.20;;;;;;5017841;28;20501;-70
2023/02/06 12:51:12;;;;;;;1.70;1.43;;;7.10;98.20;;;;;;5005565;28;20553;-71
2023/02/06 12:53:44;;;;;;;1.60;1.37;;;7.10;98.20;;;;;;5023726;28;20541;-71
2023/02/06 12:56:23;;;;;;;1.67;1.30;;;7.20;98.20;;;;;;5011258;28;20541;-71
2023/02/06 12:58:58;;;;;;;1.60;1.20;;;7.30;98.20;;;;;;5019120;28;20491;-71
2023/02/06 13:01:40;;;;;;;1.67;1.40;;;7.30;98.20;;;;;;5007399;28;20987;-71
2023/02/06 13:04:13;;;;;;;1.60;1.20;;;7.30;98.20;;;;;;5026014;28;20462;-71
2023/02/06 13:06:49;;;;;;;1.60;1.20;;;7.40;98.20;;;;;;5007935;28;20941;-71
2023/02/06 13:09:22;;;;;;;1.70;1.30;;;7.40;98.20;;;;;;5018248;28;20463;-71
2023/02/06 13:11:51;;;;;;;1.63;1.30;;;7.40;98.20;;;;;;4993764;28;20515;-71
2023/02/06 13:14:22;;;;;;;1.60;1.20;;;7.40;98.20;;;;;;5011069;28;20460;-71